Time;durP1;ratioP1;P1;durP2;ratioP2;P2;SDS_P1;SDS_P2;PMS_P1;PMS_P2;Temp;Humidity;BMP_temperature;BMP_pressure;BME280_temperature;BME280_humidity;BME280_pressure;Samples;Min_cycle;Max_cycle;Signal;HPM_P1;HPM_P2
2021/12/02 00:00:43;;;;;;;8.85;1.70;;;;;;;;;;5042549;28;20044;-75
2021/12/02 00:03:10;;;;;;;5.22;1.17;;;;;;;;;;5041190;28;20040;-75
2021/12/02 00:05:36;;;;;;;6.05;0.73;;;;;;;;;;5041821;28;20040;-75
2021/12/02 00:08:02;;;;;;;4.68;0.80;;;;;;;;;;5026158;28;20390;-74
2021/12/02 00:10:30;;;;;;;1.67;0.75;;;;;;;;;;5023281;28;20056;-74
2021/12/02 00:12:57;;;;;;;5.80;1.52;;;;;;;;;;5025410;28;20529;-75
2021/12/02 00:15:26;;;;;;;2.67;1.10;;;;;;;;;;5043442;28;20119;-76
2021/12/02 00:17:57;;;;;;;5.95;0.88;;;;;;;;;;5025890;28;20063;-76
2021/12/02 00:23:23;;;;;;;3.70;0.73;;;;;;;;;;5044483;28;20504;-75
2021/12/02 00:25:50;;;;;;;6.50;0.98;;;;;;;;;;5026786;28;20390;-75
2021/12/02 00:28:17;;;;;;;1.60;0.60;;;;;;;;;;5028595;28;20182;-75
2021/12/02 00:30:43;;;;;;;4.35;0.80;;;;;;;;;;5027643;28;21070;-75
2021/12/02 00:33:10;;;;;;;1.05;0.60;;;;;;;;;;5043961;28;20243;-75
2021/12/02 00:35:36;;;;;;;5.60;1.02;;;;;;;;;;5044706;28;20037;-75
2021/12/02 00:38:02;;;;;;;3.17;0.95;;;;;;;;;;5029536;28;20389;-74
2021/12/02 00:40:30;;;;;;;2.95;0.63;;;;;;;;;;5043902;28;20041;-74
2021/12/02 00:42:58;;;;;;;5.85;1.40;;;;;;;;;;5044612;28;20037;-75
2021/12/02 00:45:26;;;;;;;9.23;0.88;;;;;;;;;;5029264;28;20059;-74
2021/12/02 00:47:53;;;;;;;3.38;0.43;;;;;;;;;;5027879;28;20083;-75
2021/12/02 00:50:19;;;;;;;2.00;0.65;;;;;;;;;;5027773;28;20101;-74
2021/12/02 00:52:46;;;;;;;1.38;0.50;;;;;;;;;;5028903;28;20463;-74
2021/12/02 00:55:12;;;;;;;1.23;0.70;;;;;;;;;;5044325;28;20083;-74
2021/12/02 00:57:41;;;;;;;5.30;1.05;;;;;;;;;;5027613;28;20559;-74
2021/12/02 01:00:08;;;;;;;1.30;0.50;;;;;;;;;;5029030;28;20033;-75
2021/12/02 01:02:34;;;;;;;5.13;0.80;;;;;;;;;;5044267;28;20044;-74
2021/12/02 01:05:00;;;;;;;7.85;0.80;;;;;;;;;;5043753;28;20047;-74
2021/12/02 01:07:27;;;;;;;2.75;0.50;;;;;;;;;;5045348;28;20046;-74
2021/12/02 01:09:53;;;;;;;1.73;0.60;;;;;;;;;;5044090;28;20036;-75
2021/12/02 01:12:19;;;;;;;3.33;0.80;;;;;;;;;;5027398;28;20406;-75
2021/12/02 01:14:45;;;;;;;4.00;0.70;;;;;;;;;;5045120;28;20112;-75
2021/12/02 01:17:11;;;;;;;2.72;0.40;;;;;;;;;;5043664;28;20051;-75
2021/12/02 01:19:37;;;;;;;3.67;1.27;;;;;;;;;;5043609;28;20435;-74
2021/12/02 01:22:03;;;;;;;2.33;0.50;;;;;;;;;;5028797;28;20040;-75
2021/12/02 01:24:29;;;;;;;6.50;0.60;;;;;;;;;;5043438;28;20511;-74
2021/12/02 01:26:57;;;;;;;5.18;0.70;;;;;;;;;;5027753;28;20036;-74
2021/12/02 01:29:24;;;;;;;5.45;0.82;;;;;;;;;;5027722;28;20045;-74
2021/12/02 01:31:52;;;;;;;5.35;0.95;;;;;;;;;;5042963;28;20456;-74
2021/12/02 01:34:21;;;;;;;6.00;0.85;;;;;;;;;;5043606;28;20416;-74
2021/12/02 01:36:49;;;;;;;3.22;0.70;;;;;;;;;;5028486;28;20044;-74
2021/12/02 01:39:15;;;;;;;6.93;0.80;;;;;;;;;;5043554;28;20033;-74
2021/12/02 01:41:45;;;;;;;3.10;0.73;;;;;;;;;;5026346;28;20045;-75
2021/12/02 01:44:12;;;;;;;2.88;0.63;;;;;;;;;;5042880;28;20043;-75
2021/12/02 01:46:39;;;;;;;8.07;1.08;;;;;;;;;;5026923;28;20439;-74
2021/12/02 01:49:05;;;;;;;6.18;0.70;;;;;;;;;;5028096;28;20040;-73
2021/12/02 01:51:32;;;;;;;4.30;0.73;;;;;;;;;;5026664;28;20518;-73
2021/12/02 01:54:09;;;;;;;1.38;0.28;;;;;;;;;;5026577;28;20032;-74
2021/12/02 01:56:48;;;;;;;5.47;0.60;;;;;;;;;;5027947;28;20059;-75
2021/12/02 01:59:16;;;;;;;1.45;0.70;;;;;;;;;;5044203;28;20040;-74
2021/12/02 02:01:43;;;;;;;1.77;0.70;;;;;;;;;;5026301;28;20063;-76
2021/12/02 02:04:10;;;;;;;3.58;0.43;;;;;;;;;;5045052;28;20087;-76
2021/12/02 02:06:38;;;;;;;1.63;0.20;;;;;;;;;;5043319;28;20037;-74
2021/12/02 02:09:05;;;;;;;1.27;0.20;;;;;;;;;;5042102;28;20060;-75
2021/12/02 02:11:32;;;;;;;0.20;0.10;;;;;;;;;;5044297;28;20072;-74
2021/12/02 02:13:59;;;;;;;0.43;0.20;;;;;;;;;;5026801;28;20037;-75
2021/12/02 02:16:25;;;;;;;3.53;0.60;;;;;;;;;;5042070;28;20374;-75
2021/12/02 02:18:51;;;;;;;3.50;0.40;;;;;;;;;;5040064;28;20404;-74
2021/12/02 02:21:20;;;;;;;1.95;0.35;;;;;;;;;;5040045;28;20451;-74
2021/12/02 02:23:51;;;;;;;3.10;0.35;;;;;;;;;;5021940;28;20087;-74
2021/12/02 02:26:23;;;;;;;0.73;0.30;;;;;;;;;;5039742;28;20098;-74
2021/12/02 02:28:50;;;;;;;3.45;0.40;;;;;;;;;;5038643;28;20659;-74
2021/12/02 02:31:16;;;;;;;0.95;0.30;;;;;;;;;;5039333;28;20052;-74
2021/12/02 02:33:44;;;;;;;0.77;0.38;;;;;;;;;;5023752;28;20037;-74
2021/12/02 02:36:10;;;;;;;1.70;0.30;;;;;;;;;;5021893;28;20095;-74
2021/12/02 02:38:37;;;;;;;2.42;0.47;;;;;;;;;;5023060;28;20032;-74
2021/12/02 02:41:05;;;;;;;1.50;0.50;;;;;;;;;;5032357;28;20048;-74
2021/12/02 02:43:33;;;;;;;2.38;0.38;;;;;;;;;;5050400;28;20516;-74
2021/12/02 02:45:59;;;;;;;4.13;0.43;;;;;;;;;;5050039;28;20070;-74
2021/12/02 02:48:25;;;;;;;1.33;0.25;;;;;;;;;;5050936;28;20044;-74
2021/12/02 02:50:51;;;;;;;6.13;0.77;;;;;;;;;;5050714;28;20148;-74
2021/12/02 02:53:21;;;;;;;4.95;0.65;;;;;;;;;;5034020;28;20040;-74
2021/12/02 02:56:12;;;;;;;1.45;0.30;;;;;;;;;;5050463;28;20044;-74
2021/12/02 03:01:34;;;;;;;0.65;0.20;;;;;;;;;;5050282;28;20094;-74
2021/12/02 03:07:13;;;;;;;4.03;0.43;;;;;;;;;;4973388;28;20681;-74
2021/12/02 03:17:27;;;;;;;0.75;0.30;;;;;;;;;;5050132;28;20401;-73
2021/12/02 03:19:53;;;;;;;2.08;0.57;;;;;;;;;;5036826;28;20041;-74
2021/12/02 03:22:19;;;;;;;1.73;0.50;;;;;;;;;;5036741;28;20071;-73
2021/12/02 03:24:45;;;;;;;4.47;0.68;;;;;;;;;;5053680;28;20040;-73
2021/12/02 03:27:11;;;;;;;1.48;0.70;;;;;;;;;;5053293;28;20048;-74
2021/12/02 03:29:37;;;;;;;1.85;0.38;;;;;;;;;;5053636;28;20037;-74
2021/12/02 03:32:03;;;;;;;2.67;0.40;;;;;;;;;;5036683;28;20174;-74
2021/12/02 03:34:29;;;;;;;0.75;0.30;;;;;;;;;;5036643;28;20049;-74
2021/12/02 03:36:55;;;;;;;0.95;0.30;;;;;;;;;;5053712;28;20051;-74
2021/12/02 03:39:21;;;;;;;3.80;0.47;;;;;;;;;;5053263;28;20036;-74
2021/12/02 03:41:48;;;;;;;0.85;0.32;;;;;;;;;;5053690;28;20480;-74
2021/12/02 03:44:14;;;;;;;3.08;0.38;;;;;;;;;;5036765;28;20044;-75
2021/12/02 03:46:40;;;;;;;1.75;0.50;;;;;;;;;;5053424;28;20047;-75
2021/12/02 03:49:07;;;;;;;3.65;0.40;;;;;;;;;;5036767;28;20465;-75
2021/12/02 03:51:33;;;;;;;2.80;0.40;;;;;;;;;;5036683;28;20072;-75
2021/12/02 03:54:00;;;;;;;0.85;0.30;;;;;;;;;;5056375;28;20045;-74
2021/12/02 03:56:26;;;;;;;4.00;0.30;;;;;;;;;;5057055;28;20500;-76
2021/12/02 03:58:52;;;;;;;1.65;0.43;;;;;;;;;;5040450;28;20046;-75
2021/12/02 04:01:19;;;;;;;4.03;0.40;;;;;;;;;;5040380;28;20044;-74
2021/12/02 04:03:45;;;;;;;1.67;0.40;;;;;;;;;;5057137;28;20040;-75
2021/12/02 04:06:12;;;;;;;0.77;0.45;;;;;;;;;;5056898;28;20053;-75
2021/12/02 04:08:54;;;;;;;0.95;0.30;;;;;;;;;;5040304;28;20036;-73
2021/12/02 04:11:38;;;;;;;1.50;0.32;;;;;;;;;;5056962;28;20518;-73
2021/12/02 04:16:52;;;;;;;0.57;0.38;;;;;;;;;;5056862;28;20131;-76
2021/12/02 04:19:18;;;;;;;4.47;0.93;;;;;;;;;;5056604;28;20139;-74
2021/12/02 04:21:45;;;;;;;1.92;0.38;;;;;;;;;;5039902;28;20048;-73
2021/12/02 04:24:11;;;;;;;1.40;0.40;;;;;;;;;;5056689;28;20036;-74
2021/12/02 04:26:39;;;;;;;3.50;0.90;;;;;;;;;;5039982;28;20040;-74
2021/12/02 04:29:05;;;;;;;0.60;0.30;;;;;;;;;;5039760;28;20048;-74
2021/12/02 04:31:31;;;;;;;3.05;0.70;;;;;;;;;;5056301;28;20045;-74
2021/12/02 04:33:57;;;;;;;2.05;0.50;;;;;;;;;;5039707;28;20124;-74
2021/12/02 04:36:23;;;;;;;2.40;0.55;;;;;;;;;;5039738;28;20036;-74
2021/12/02 04:38:49;;;;;;;0.77;0.50;;;;;;;;;;5056346;28;20127;-74
2021/12/02 04:41:17;;;;;;;0.65;0.57;;;;;;;;;;5039791;28;20090;-74
2021/12/02 04:43:43;;;;;;;2.92;0.40;;;;;;;;;;5039728;28;20052;-74
2021/12/02 04:46:09;;;;;;;2.25;0.60;;;;;;;;;;5056484;28;20041;-74
2021/12/02 04:48:35;;;;;;;3.83;0.63;;;;;;;;;;5055946;28;20473;-73
2021/12/02 04:51:01;;;;;;;0.82;0.60;;;;;;;;;;5055954;28;20043;-74
2021/12/02 04:53:27;;;;;;;3.33;0.70;;;;;;;;;;5056300;28;20040;-74
2021/12/02 04:55:53;;;;;;;1.55;0.43;;;;;;;;;;5039224;28;20032;-73
2021/12/02 04:58:19;;;;;;;1.70;0.50;;;;;;;;;;5056036;28;20507;-73
2021/12/02 05:00:45;;;;;;;2.00;0.40;;;;;;;;;;5039723;28;20040;-74
2021/12/02 05:03:11;;;;;;;0.65;0.30;;;;;;;;;;5039306;28;20040;-73
2021/12/02 05:05:37;;;;;;;3.10;1.05;;;;;;;;;;5054897;28;20484;-75
2021/12/02 05:08:04;;;;;;;0.82;0.50;;;;;;;;;;5039178;28;20040;-74
2021/12/02 05:10:30;;;;;;;0.98;0.50;;;;;;;;;;5055683;28;20416;-74
2021/12/02 05:12:56;;;;;;;0.30;0.30;;;;;;;;;;5055680;28;20296;-74
2021/12/02 05:15:22;;;;;;;0.60;0.20;;;;;;;;;;5039150;28;20036;-73
2021/12/02 05:17:48;;;;;;;0.43;0.28;;;;;;;;;;5055511;28;20063;-73
2021/12/02 05:20:14;;;;;;;0.20;0.20;;;;;;;;;;5038958;28;20037;-73
2021/12/02 05:22:40;;;;;;;0.57;0.30;;;;;;;;;;5055524;28;20051;-73
2021/12/02 05:25:06;;;;;;;0.60;0.30;;;;;;;;;;5039076;28;20396;-73
2021/12/02 05:27:33;;;;;;;0.40;0.20;;;;;;;;;;5055323;28;20043;-73
2021/12/02 05:29:59;;;;;;;0.20;0.20;;;;;;;;;;5055302;28;20080;-73
2021/12/02 05:32:24;;;;;;;1.50;0.30;;;;;;;;;;5038632;28;20487;-73
2021/12/02 05:34:50;;;;;;;0.95;0.40;;;;;;;;;;5055161;28;20046;-74
2021/12/02 05:37:17;;;;;;;0.30;0.20;;;;;;;;;;5055289;28;20032;-74
2021/12/02 05:39:43;;;;;;;0.28;0.20;;;;;;;;;;5055403;28;20481;-74
2021/12/02 05:42:10;;;;;;;0.95;0.20;;;;;;;;;;5054869;28;20052;-74
2021/12/02 05:44:36;;;;;;;0.10;0.10;;;;;;;;;;5055192;28;20049;-74
2021/12/02 05:47:02;;;;;;;1.23;0.30;;;;;;;;;;5054967;28;20072;-73
2021/12/02 05:49:28;;;;;;;0.88;0.52;;;;;;;;;;5038631;28;20495;-72
2021/12/02 05:51:54;;;;;;;3.22;0.57;;;;;;;;;;5038186;28;20127;-73
2021/12/02 05:54:20;;;;;;;1.75;0.80;;;;;;;;;;5054821;28;20044;-73
2021/12/02 05:56:46;;;;;;;0.50;0.50;;;;;;;;;;5054852;28;20036;-73
2021/12/02 05:59:13;;;;;;;0.85;0.80;;;;;;;;;;5054723;28;20051;-73
2021/12/02 06:01:42;;;;;;;1.98;0.90;;;;;;;;;;5054480;28;20044;-73
2021/12/02 06:04:09;;;;;;;1.00;0.90;;;;;;;;;;5054609;28;20123;-73
2021/12/02 06:06:35;;;;;;;2.13;1.30;;;;;;;;;;5054554;28;20052;-73
2021/12/02 06:09:01;;;;;;;2.40;1.10;;;;;;;;;;5037984;28;20040;-73
2021/12/02 06:11:27;;;;;;;2.33;0.77;;;;;;;;;;5054445;28;20101;-73
2021/12/02 06:13:53;;;;;;;2.38;1.00;;;;;;;;;;5054413;28;20484;-73
2021/12/02 06:16:21;;;;;;;2.20;0.77;;;;;;;;;;5054268;28;20409;-73
2021/12/02 06:18:47;;;;;;;1.30;0.77;;;;;;;;;;5037701;28;20048;-73
2021/12/02 06:21:13;;;;;;;1.73;0.85;;;;;;;;;;5054246;28;20106;-73
2021/12/02 06:23:40;;;;;;;0.75;0.68;;;;;;;;;;5037629;28;20044;-74
2021/12/02 06:26:06;;;;;;;1.63;0.80;;;;;;;;;;5037559;28;20431;-74
2021/12/02 06:28:32;;;;;;;0.98;0.65;;;;;;;;;;5054331;28;20468;-74
2021/12/02 06:31:01;;;;;;;6.03;0.85;;;;;;;;;;5054393;28;20079;-75
2021/12/02 06:33:27;;;;;;;4.75;0.90;;;;;;;;;;5054113;28;20083;-74
2021/12/02 06:35:53;;;;;;;2.72;0.60;;;;;;;;;;5054112;28;20489;-74
2021/12/02 06:38:19;;;;;;;1.90;0.60;;;;;;;;;;5054045;28;20124;-73
2021/12/02 06:40:45;;;;;;;1.00;0.40;;;;;;;;;;5054299;28;20135;-73
2021/12/02 06:43:14;;;;;;;0.30;0.30;;;;;;;;;;5037223;28;20040;-74
2021/12/02 06:45:40;;;;;;;0.82;0.40;;;;;;;;;;5053322;28;20382;-74
2021/12/02 06:48:06;;;;;;;0.98;0.38;;;;;;;;;;5053581;28;20067;-74
2021/12/02 06:50:34;;;;;;;0.75;0.40;;;;;;;;;;5037160;28;20150;-74
2021/12/02 06:53:00;;;;;;;3.10;0.40;;;;;;;;;;5053676;28;20519;-73
2021/12/02 06:55:26;;;;;;;1.77;0.32;;;;;;;;;;5037211;28;20029;-73
2021/12/02 06:57:52;;;;;;;0.20;0.20;;;;;;;;;;5053666;28;20045;-76
2021/12/02 07:00:19;;;;;;;0.20;0.20;;;;;;;;;;5053851;28;20578;-73
2021/12/02 07:02:46;;;;;;;0.45;0.28;;;;;;;;;;5054070;28;20063;-74
2021/12/02 07:05:12;;;;;;;1.38;0.20;;;;;;;;;;5037808;28;20043;-73
2021/12/02 07:07:38;;;;;;;0.80;0.30;;;;;;;;;;5054281;28;20080;-73
2021/12/02 07:10:06;;;;;;;0.32;0.30;;;;;;;;;;5053643;28;20048;-73
2021/12/02 07:12:33;;;;;;;0.63;0.32;;;;;;;;;;5053464;28;20044;-73
2021/12/02 07:15:05;;;;;;;0.50;0.47;;;;;;;;;;5053542;28;20447;-73
2021/12/02 07:17:32;;;;;;;1.92;0.60;;;;;;;;;;5036655;28;20123;-73
2021/12/02 07:19:59;;;;;;;0.50;0.50;;;;;;;;;;5037508;28;20041;-73
2021/12/02 07:22:25;;;;;;;1.02;0.50;;;;;;;;;;5037077;28;20071;-73
2021/12/02 07:24:50;;;;;;;3.15;0.60;;;;;;;;;;5037119;28;20086;-73
2021/12/02 07:27:17;;;;;;;1.50;0.40;;;;;;;;;;5052875;28;20040;-73
2021/12/02 07:29:43;;;;;;;0.30;0.30;;;;;;;;;;5053534;28;20574;-73
2021/12/02 07:32:10;;;;;;;0.43;0.20;;;;;;;;;;5053395;28;20048;-73
2021/12/02 07:34:37;;;;;;;0.55;0.30;;;;;;;;;;5053351;28;20068;-73
2021/12/02 07:37:03;;;;;;;0.40;0.25;;;;;;;;;;5053492;28;20492;-73
2021/12/02 07:39:30;;;;;;;6.00;0.68;;;;;;;;;;5036654;28;20037;-72
2021/12/02 07:41:56;;;;;;;1.48;0.47;;;;;;;;;;5036519;28;20089;-73
2021/12/02 07:44:22;;;;;;;0.85;0.35;;;;;;;;;;5036699;28;20055;-73
2021/12/02 07:46:49;;;;;;;0.82;0.50;;;;;;;;;;5036802;28;20052;-73
2021/12/02 07:49:15;;;;;;;2.17;0.68;;;;;;;;;;5036519;28;20076;-73
2021/12/02 07:51:45;;;;;;;2.53;0.60;;;;;;;;;;5053374;28;20033;-73
2021/12/02 07:54:12;;;;;;;2.28;0.90;;;;;;;;;;5053137;28;20040;-72
2021/12/02 07:56:39;;;;;;;1.15;0.50;;;;;;;;;;5053106;28;20044;-73
2021/12/02 07:59:05;;;;;;;1.02;0.63;;;;;;;;;;5036355;28;20119;-73
2021/12/02 08:01:34;;;;;;;2.22;0.75;;;;;;;;;;5036460;28;20041;-72
2021/12/02 08:04:00;;;;;;;2.03;0.80;;;;;;;;;;5053004;28;20047;-73
2021/12/02 08:06:27;;;;;;;0.73;0.60;;;;;;;;;;5053021;28;20044;-73
2021/12/02 08:08:53;;;;;;;1.50;0.88;;;;;;;;;;5036576;28;20056;-74
2021/12/02 08:11:19;;;;;;;1.67;0.80;;;;;;;;;;5053131;28;20044;-73
2021/12/02 08:13:51;;;;;;;1.73;1.00;;;;;;;;;;5036681;28;20495;-73
2021/12/02 08:16:18;;;;;;;1.40;0.50;;;;;;;;;;5036523;28;20396;-73
2021/12/02 08:18:44;;;;;;;1.55;0.60;;;;;;;;;;5052875;28;20068;-73
2021/12/02 08:21:11;;;;;;;1.15;0.73;;;;;;;;;;5036427;28;20080;-73
2021/12/02 08:23:37;;;;;;;2.67;0.77;;;;;;;;;;5036137;28;20078;-73
2021/12/02 08:26:03;;;;;;;0.95;0.60;;;;;;;;;;5051627;28;20044;-73
2021/12/02 08:28:29;;;;;;;1.13;0.77;;;;;;;;;;5049502;28;20040;-73
2021/12/02 08:30:57;;;;;;;1.67;0.60;;;;;;;;;;5048200;28;20036;-73
2021/12/02 08:33:23;;;;;;;1.45;0.90;;;;;;;;;;5047339;28;20439;-73
2021/12/02 08:35:49;;;;;;;2.53;0.70;;;;;;;;;;5049105;28;20135;-73
2021/12/02 08:38:18;;;;;;;2.38;0.82;;;;;;;;;;5049214;28;20036;-73
2021/12/02 08:40:47;;;;;;;1.92;0.68;;;;;;;;;;5053226;28;20048;-73
2021/12/02 08:43:14;;;;;;;2.00;0.93;;;;;;;;;;5035508;28;20047;-73
2021/12/02 08:45:40;;;;;;;1.10;1.00;;;;;;;;;;5052669;28;20495;-73
2021/12/02 08:48:07;;;;;;;2.15;0.85;;;;;;;;;;5053302;28;20048;-73
2021/12/02 08:50:33;;;;;;;1.05;0.80;;;;;;;;;;5052555;28;20047;-73
2021/12/02 08:53:00;;;;;;;2.55;0.90;;;;;;;;;;5052427;28;20399;-73
2021/12/02 08:55:29;;;;;;;1.38;0.82;;;;;;;;;;5052149;28;20095;-74
2021/12/02 08:57:55;;;;;;;1.63;0.88;;;;;;;;;;5052549;28;20055;-73
2021/12/02 09:00:27;;;;;;;2.03;0.90;;;;;;;;;;5052293;28;20033;-73
2021/12/02 09:02:53;;;;;;;1.20;0.90;;;;;;;;;;5048730;28;20045;-73
2021/12/02 09:05:19;;;;;;;4.80;1.23;;;;;;;;;;5023402;28;20121;-73
2021/12/02 09:07:46;;;;;;;4.07;1.05;;;;;;;;;;5023308;28;20045;-72
2021/12/02 09:10:12;;;;;;;1.98;1.20;;;;;;;;;;5041056;28;20121;-72
2021/12/02 09:12:38;;;;;;;1.95;0.95;;;;;;;;;;5024969;28;20091;-73
2021/12/02 09:15:07;;;;;;;2.58;1.08;;;;;;;;;;5023276;28;20210;-72
2021/12/02 09:17:33;;;;;;;2.38;1.25;;;;;;;;;;5045797;28;20048;-72
2021/12/02 09:19:59;;;;;;;1.83;1.30;;;;;;;;;;5051696;28;20496;-73
2021/12/02 09:22:25;;;;;;;1.38;1.00;;;;;;;;;;5035496;28;20051;-73
2021/12/02 09:24:51;;;;;;;1.83;1.30;;;;;;;;;;5035642;28;20362;-72
2021/12/02 09:27:17;;;;;;;3.72;1.42;;;;;;;;;;5035617;28;20054;-73
2021/12/02 09:29:43;;;;;;;3.67;1.33;;;;;;;;;;5051984;28;20064;-72
2021/12/02 09:32:11;;;;;;;1.35;1.00;;;;;;;;;;5034810;28;20048;-72
2021/12/02 09:34:37;;;;;;;2.67;1.38;;;;;;;;;;5035398;28;20045;-72
2021/12/02 09:37:03;;;;;;;1.98;1.00;;;;;;;;;;5051855;28;20036;-72
2021/12/02 09:39:31;;;;;;;3.05;1.10;;;;;;;;;;5051927;28;20062;-72
2021/12/02 09:41:57;;;;;;;1.67;1.15;;;;;;;;;;5051796;28;20048;-72
2021/12/02 09:44:23;;;;;;;2.70;1.20;;;;;;;;;;5051334;28;20055;-72
2021/12/02 09:46:49;;;;;;;2.17;0.70;;;;;;;;;;5051680;28;20052;-72
2021/12/02 09:49:16;;;;;;;1.30;1.15;;;;;;;;;;5051418;28;20159;-73
2021/12/02 09:54:20;;;;;;;2.63;0.80;;;;;;;;;;5051580;28;20040;-73
2021/12/02 09:56:51;;;;;;;2.22;1.00;;;;;;;;;;5050863;28;20404;-73
2021/12/02 09:59:30;;;;;;;1.45;0.98;;;;;;;;;;5041699;28;20155;-72
2021/12/02 10:02:02;;;;;;;3.15;1.00;;;;;;;;;;5023178;28;20122;-72
2021/12/02 10:04:29;;;;;;;1.17;0.98;;;;;;;;;;5038696;28;20056;-72
2021/12/02 10:07:05;;;;;;;1.45;0.98;;;;;;;;;;5024399;28;20041;-72
2021/12/02 10:09:44;;;;;;;2.40;0.80;;;;;;;;;;5039912;28;20040;-71
2021/12/02 10:12:16;;;;;;;4.35;0.95;;;;;;;;;;5024309;28;20037;-72
2021/12/02 10:14:48;;;;;;;2.08;1.10;;;;;;;;;;5024340;28;20029;-73
2021/12/02 10:17:43;;;;;;;0.93;0.70;;;;;;;;;;5019061;28;20048;-73
2021/12/02 10:23:04;;;;;;;0.90;0.65;;;;;;;;;;5031038;28;20068;-75
2021/12/02 10:25:31;;;;;;;16.42;1.45;;;;;;;;;;5014495;28;20440;-75
2021/12/02 10:28:10;;;;;;;0.52;0.30;;;;;;;;;;5028786;28;20442;-73
2021/12/02 10:30:41;;;;;;;0.30;0.20;;;;;;;;;;5014341;28;20048;-73
2021/12/02 10:33:09;;;;;;;0.88;0.10;;;;;;;;;;5030032;28;20133;-75
2021/12/02 10:35:53;;;;;;;0.10;0.10;;;;;;;;;;5030200;28;20086;-72
2021/12/02 10:38:38;;;;;;;0.40;0.20;;;;;;;;;;5014102;28;20103;-72
2021/12/02 10:41:08;;;;;;;3.40;0.57;;;;;;;;;;5030509;28;20036;-71
2021/12/02 10:43:35;;;;;;;0.38;0.28;;;;;;;;;;5013310;28;20041;-71
2021/12/02 10:46:14;;;;;;;3.78;0.38;;;;;;;;;;5013799;28;20435;-71
2021/12/02 10:48:51;;;;;;;0.32;0.17;;;;;;;;;;5013666;28;20049;-71
2021/12/02 10:51:36;;;;;;;3.22;0.30;;;;;;;;;;5029792;28;20049;-71
2021/12/02 10:54:13;;;;;;;1.27;0.43;;;;;;;;;;5013735;28;20047;-70
2021/12/02 10:56:39;;;;;;;2.95;0.40;;;;;;;;;;5029908;28;20052;-71
2021/12/02 10:59:24;;;;;;;3.88;1.80;;;;;;;;;;5029881;28;20041;-71
2021/12/02 11:01:52;;;;;;;2.78;1.67;;;;;;;;;;5013039;28;20044;-71
2021/12/02 11:04:18;;;;;;;0.80;0.40;;;;;;;;;;5030080;28;20057;-71
2021/12/02 11:06:46;;;;;;;0.50;0.30;;;;;;;;;;5013256;28;20451;-71
2021/12/02 11:09:25;;;;;;;2.53;0.35;;;;;;;;;;5013636;28;20607;-70
2021/12/02 11:12:10;;;;;;;0.43;0.20;;;;;;;;;;5013573;28;20049;-71
2021/12/02 11:14:39;;;;;;;0.65;0.32;;;;;;;;;;5029925;28;20033;-71
2021/12/02 11:17:15;;;;;;;0.68;0.38;;;;;;;;;;5029634;28;20590;-71
2021/12/02 11:19:43;;;;;;;0.08;0.08;;;;;;;;;;5029235;28;20053;-71
2021/12/02 11:22:11;;;;;;;1.55;0.50;;;;;;;;;;5013572;28;20045;-71
2021/12/02 11:24:37;;;;;;;1.35;0.30;;;;;;;;;;5030104;28;20051;-71
2021/12/02 11:27:09;;;;;;;2.05;1.20;;;;;;;;;;5013945;28;20049;-72
2021/12/02 11:29:49;;;;;;;1.80;0.47;;;;;;;;;;5030106;28;20044;-71
2021/12/02 11:32:28;;;;;;;3.00;0.60;;;;;;;;;;5013087;28;20045;-71
2021/12/02 11:35:03;;;;;;;2.60;1.00;;;;;;;;;;5029884;28;20079;-73
2021/12/02 11:37:29;;;;;;;1.38;0.82;;;;;;;;;;5029857;28;20041;-73
2021/12/02 11:39:57;;;;;;;1.88;0.88;;;;;;;;;;5013493;28;20045;-74
2021/12/02 11:42:23;;;;;;;2.05;0.90;;;;;;;;;;5029725;28;20398;-72
2021/12/02 11:44:49;;;;;;;1.35;0.90;;;;;;;;;;5029919;28;20049;-71
2021/12/02 11:47:16;;;;;;;1.35;0.68;;;;;;;;;;5030270;28;20041;-71
2021/12/02 11:49:42;;;;;;;1.45;0.82;;;;;;;;;;5029770;28;20135;-72
2021/12/02 11:52:09;;;;;;;0.95;0.65;;;;;;;;;;5013084;28;20933;-71
2021/12/02 11:54:36;;;;;;;1.77;0.90;;;;;;;;;;5029665;28;20072;-71
2021/12/02 11:57:02;;;;;;;2.10;1.15;;;;;;;;;;5027673;28;20086;-72
2021/12/02 11:59:28;;;;;;;2.28;1.30;;;;;;;;;;5029531;28;20512;-71
2021/12/02 12:01:55;;;;;;;0.93;0.60;;;;;;;;;;5012831;28;20056;-70
2021/12/02 12:04:22;;;;;;;2.78;0.98;;;;;;;;;;5029104;28;20045;-72
2021/12/02 12:06:53;;;;;;;0.30;0.28;;;;;;;;;;5012341;28;20040;-75
2021/12/02 12:09:20;;;;;;;0.55;0.10;;;;;;;;;;5030415;28;20098;-74
2021/12/02 12:11:48;;;;;;;0.10;0.10;;;;;;;;;;5030041;28;20353;-72
2021/12/02 12:14:19;;;;;;;0.10;0.10;;;;;;;;;;5015064;28;20353;-73
2021/12/02 12:16:47;;;;;;;6.32;0.32;;;;;;;;;;5032967;28;20052;-73
2021/12/02 12:19:22;;;;;;;0.20;0.20;;;;;;;;;;5032408;28;20156;-73
2021/12/02 12:21:56;;;;;;;0.20;0.20;;;;;;;;;;5032667;28;20059;-74
2021/12/02 12:24:46;;;;;;;0.47;0.35;;;;;;;;;;5046325;28;20066;-73
2021/12/02 12:27:15;;;;;;;0.60;0.50;;;;;;;;;;5044700;28;20054;-72
2021/12/02 12:29:42;;;;;;;1.63;0.60;;;;;;;;;;5056237;28;20076;-72
2021/12/02 12:32:13;;;;;;;3.58;0.68;;;;;;;;;;5039302;28;20052;-73
2021/12/02 12:34:44;;;;;;;1.15;0.50;;;;;;;;;;5056035;28;20047;-72
2021/12/02 12:37:10;;;;;;;;;;;;;;;;;;5056414;28;20075;-73
2021/12/02 12:39:36;;;;;;;0.60;0.47;;;;;;;;;;5055945;28;19916;-73
2021/12/02 12:42:11;;;;;;;1.13;1.00;;;;;;;;;;5056126;28;20487;-76
2021/12/02 12:44:53;;;;;;;1.15;0.82;;;;;;;;;;5039353;28;20177;-80
2021/12/02 12:47:20;;;;;;;0.35;0.35;;;;;;;;;;5056356;28;20722;-73
2021/12/02 12:49:46;;;;;;;0.77;0.47;;;;;;;;;;5056170;28;20477;-75
2021/12/02 12:52:17;;;;;;;0.40;0.40;;;;;;;;;;5039433;28;20556;-73
2021/12/02 12:54:43;;;;;;;0.98;0.75;;;;;;;;;;5039376;28;20037;-73
2021/12/02 12:57:09;;;;;;;0.40;0.40;;;;;;;;;;5055681;28;20041;-73
2021/12/02 12:59:54;;;;;;;1.92;0.50;;;;;;;;;;5039204;28;20178;-72
2021/12/02 13:02:21;;;;;;;0.70;0.60;;;;;;;;;;5055936;28;20052;-72
2021/12/02 13:04:53;;;;;;;1.02;0.60;;;;;;;;;;5055568;28;20496;-73
2021/12/02 13:07:20;;;;;;;2.40;1.90;;;;;;;;;;5039561;28;20076;-72
2021/12/02 13:09:59;;;;;;;3.40;2.30;;;;;;;;;;5038801;28;20044;-72
2021/12/02 13:12:37;;;;;;;1.08;0.98;;;;;;;;;;5055696;28;20033;-72
2021/12/02 13:15:04;;;;;;;3.88;1.60;;;;;;;;;;5038700;28;20044;-73
2021/12/02 13:17:37;;;;;;;3.45;1.80;;;;;;;;;;5055655;28;20037;-72
2021/12/02 13:20:13;;;;;;;6.68;3.13;;;;;;;;;;5038514;28;20088;-73
2021/12/02 13:22:39;;;;;;;2.95;2.17;;;;;;;;;;5038615;28;20411;-73
2021/12/02 13:25:24;;;;;;;2.65;1.15;;;;;;;;;;5037753;28;20497;-72
2021/12/02 13:27:51;;;;;;;1.23;1.02;;;;;;;;;;5038377;28;20110;-72
2021/12/02 13:30:17;;;;;;;5.43;1.88;;;;;;;;;;5055293;28;20101;-74
2021/12/02 13:32:52;;;;;;;1.70;1.10;;;;;;;;;;5055226;28;20101;-73
2021/12/02 13:35:26;;;;;;;1.42;0.95;;;;;;;;;;5038614;28;20070;-74
2021/12/02 13:38:05;;;;;;;1.17;0.82;;;;;;;;;;5055311;28;20047;-74
2021/12/02 13:40:35;;;;;;;1.35;1.00;;;;;;;;;;5038318;28;20043;-75
2021/12/02 13:43:01;;;;;;;1.58;1.10;;;;;;;;;;5054691;28;20063;-73
2021/12/02 13:45:29;;;;;;;1.83;1.08;;;;;;;;;;5038554;28;20093;-74
2021/12/02 13:48:12;;;;;;;1.30;1.10;;;;;;;;;;5038357;28;20382;-74
2021/12/02 13:50:41;;;;;;;3.42;1.70;;;;;;;;;;5055193;28;20048;-75
2021/12/02 13:53:08;;;;;;;2.67;1.83;;;;;;;;;;5054649;28;20413;-74
2021/12/02 13:55:37;;;;;;;2.60;1.80;;;;;;;;;;5054858;28;20505;-74
2021/12/02 13:58:07;;;;;;;3.03;2.33;;;;;;;;;;5037863;28;20524;-74
2021/12/02 14:00:34;;;;;;;2.75;1.90;;;;;;;;;;5037798;28;20396;-74
2021/12/02 14:03:12;;;;;;;3.58;2.13;;;;;;;;;;5054593;28;20169;-74
2021/12/02 14:05:40;;;;;;;3.83;1.85;;;;;;;;;;5054438;28;20048;-75
2021/12/02 14:08:07;;;;;;;1.70;1.17;;;;;;;;;;5054565;28;20045;-74
2021/12/02 14:10:34;;;;;;;3.20;1.80;;;;;;;;;;5038101;28;20177;-75
2021/12/02 14:13:02;;;;;;;3.70;2.35;;;;;;;;;;5054992;28;20047;-75
2021/12/02 14:15:38;;;;;;;2.78;2.13;;;;;;;;;;5037490;28;20127;-75
2021/12/02 14:18:04;;;;;;;2.80;2.03;;;;;;;;;;5037299;28;20053;-74
2021/12/02 14:20:40;;;;;;;4.55;2.00;;;;;;;;;;5054378;28;20048;-75
2021/12/02 14:23:17;;;;;;;4.70;2.08;;;;;;;;;;5054196;28;20526;-75
2021/12/02 14:25:46;;;;;;;1.60;1.50;;;;;;;;;;5054387;28;20044;-75
2021/12/02 14:28:22;;;;;;;2.38;1.70;;;;;;;;;;5037843;28;20056;-75
2021/12/02 14:30:58;;;;;;;4.38;1.90;;;;;;;;;;5054132;28;20048;-74
2021/12/02 14:33:35;;;;;;;10.85;4.10;;;;;;;;;;5037245;28;20033;-75
2021/12/02 14:36:12;;;;;;;11.88;4.70;;;;;;;;;;5053721;28;20066;-75
2021/12/02 14:38:43;;;;;;;7.03;2.90;;;;;;;;;;5053944;28;20048;-74
2021/12/02 14:41:10;;;;;;;11.02;3.42;;;;;;;;;;5037419;28;20048;-75
2021/12/02 14:43:36;;;;;;;3.33;2.15;;;;;;;;;;5053616;28;20526;-74
2021/12/02 14:46:11;;;;;;;3.80;3.38;;;;;;;;;;5053637;28;20036;-74
2021/12/02 14:48:38;;;;;;;2.63;2.13;;;;;;;;;;5053841;28;20065;-74
2021/12/02 14:51:06;;;;;;;4.00;1.98;;;;;;;;;;5053472;28;20062;-74
2021/12/02 14:53:36;;;;;;;1.90;1.40;;;;;;;;;;5036835;28;20522;-74
2021/12/02 14:56:19;;;;;;;2.75;1.60;;;;;;;;;;5053422;28;20044;-74
2021/12/02 14:59:04;;;;;;;2.42;2.15;;;;;;;;;;5051973;28;20047;-74
2021/12/02 15:01:30;;;;;;;2.53;2.20;;;;;;;;;;5049917;28;20500;-75
2021/12/02 15:03:57;;;;;;;2.40;1.85;;;;;;;;;;5033179;28;20036;-76
2021/12/02 15:06:38;;;;;;;2.65;1.50;;;;;;;;;;5033702;28;20040;-74
2021/12/02 15:09:24;;;;;;;4.32;2.20;;;;;;;;;;5033359;28;20044;-75
2021/12/02 15:11:50;;;;;;;3.30;2.08;;;;;;;;;;5050440;28;20045;-75
2021/12/02 15:14:52;;;;;;;2.83;1.90;;;;;;;;;;5050024;28;20508;-74
2021/12/02 15:17:19;;;;;;;3.67;1.80;;;;;;;;;;4950006;28;20042;-74